Time;durP1;ratioP1;P1;durP2;ratioP2;P2;SDS_P1;SDS_P2;PMS_P1;PMS_P2;Temp;Humidity;BMP_temperature;BMP_pressure;BME280_temperature;BME280_humidity;BME280_pressure;Samples;Min_cycle;Max_cycle;Signal;HPM_P1;HPM_P2
2022/05/23 00:01:55;;;;;;;7.70;4.93;;;15.20;99.90;;;;;;5041011;28;20482;-77
2022/05/23 00:04:23;;;;;;;9.57;4.73;;;15.10;99.90;;;;;;5048763;28;20456;-77
2022/05/23 00:06:50;;;;;;;6.10;4.63;;;15.10;99.90;;;;;;5050764;28;20510;-77
2022/05/23 00:09:18;;;;;;;6.27;4.20;;;15.00;99.90;;;;;;5043579;28;20876;-78
2022/05/23 00:11:45;;;;;;;6.63;5.10;;;14.90;99.90;;;;;;5047231;28;20446;-78
2022/05/23 00:14:12;;;;;;;5.97;4.87;;;14.90;99.90;;;;;;5030678;28;20439;-78
2022/05/23 00:16:42;;;;;;;6.30;5.50;;;14.90;99.90;;;;;;5042473;28;20448;-78
2022/05/23 00:19:10;;;;;;;8.77;5.67;;;14.80;99.90;;;;;;5032279;28;20484;-77
2022/05/23 00:21:38;;;;;;;4.97;4.50;;;14.80;99.90;;;;;;5031003;28;20471;-78
2022/05/23 00:24:06;;;;;;;7.13;5.00;;;14.80;99.90;;;;;;5052019;28;20464;-77
2022/05/23 00:26:33;;;;;;;7.80;5.30;;;14.70;99.90;;;;;;5048537;28;20474;-77
2022/05/23 00:28:59;;;;;;;11.73;5.40;;;14.70;99.90;;;;;;5034678;28;20457;-78
2022/05/23 00:31:26;;;;;;;5.47;5.00;;;14.70;99.90;;;;;;5034563;28;20447;-78
2022/05/23 00:36:38;;;;;;;7.83;4.90;;;14.70;99.90;;;;;;5040250;28;20965;-78
2022/05/23 00:39:06;;;;;;;9.53;5.70;;;14.70;99.90;;;;;;5054159;28;20634;-78
2022/05/23 00:44:22;;;;;;;6.07;5.20;;;14.70;99.90;;;;;;5033730;28;20511;-77
2022/05/23 00:46:51;;;;;;;5.70;4.60;;;14.60;99.90;;;;;;5033893;28;20457;-79
2022/05/23 00:49:21;;;;;;;7.30;4.50;;;14.60;99.90;;;;;;5040435;28;20946;-78
2022/05/23 00:51:49;;;;;;;17.60;5.63;;;14.60;99.90;;;;;;5045976;28;20476;-78
2022/05/23 00:54:16;;;;;;;9.87;4.97;;;14.60;99.90;;;;;;5033346;28;20511;-77
2022/05/23 00:56:46;;;;;;;10.33;4.73;;;14.60;99.90;;;;;;5044141;28;20449;-78
2022/05/23 00:59:17;;;;;;;4.87;4.47;;;14.70;99.90;;;;;;5045637;28;20455;-78
2022/05/23 01:01:44;;;;;;;4.93;4.50;;;14.70;99.90;;;;;;5034037;28;20530;-78
2022/05/23 01:04:11;;;;;;;6.13;4.60;;;14.80;99.90;;;;;;5049298;28;20445;-78
2022/05/23 01:06:38;;;;;;;7.93;4.70;;;14.80;99.90;;;;;;5042040;28;20453;-79
2022/05/23 01:09:06;;;;;;;10.27;5.40;;;14.80;99.90;;;;;;5051231;28;20423;-78
2022/05/23 01:11:33;;;;;;;6.20;4.57;;;14.80;99.90;;;;;;5038648;28;20504;-78
2022/05/23 01:13:59;;;;;;;11.37;5.10;;;14.90;99.90;;;;;;5049292;28;20452;-77
2022/05/23 01:16:27;;;;;;;7.67;5.00;;;14.90;99.90;;;;;;5038755;28;20474;-77
2022/05/23 01:18:54;;;;;;;7.27;5.17;;;14.90;99.90;;;;;;5073637;28;20574;-78
2022/05/23 01:21:29;;;;;;;5.47;4.80;;;14.90;99.90;;;;;;5058733;28;20456;-78
2022/05/23 01:24:01;;;;;;;7.50;5.23;;;14.90;99.90;;;;;;5049807;28;20455;-78
2022/05/23 01:26:32;;;;;;;13.60;5.60;;;14.90;99.90;;;;;;5052568;28;20432;-77
2022/05/23 01:28:59;;;;;;;8.53;5.77;;;14.90;99.90;;;;;;5053133;28;20473;-79
2022/05/23 01:31:26;;;;;;;10.53;5.43;;;14.80;99.90;;;;;;5040061;28;20866;-78
2022/05/23 01:33:53;;;;;;;7.63;5.57;;;14.80;99.90;;;;;;5032817;28;20486;-77
2022/05/23 01:36:19;;;;;;;6.57;5.50;;;14.80;99.90;;;;;;5051826;28;20789;-77
2022/05/23 01:38:46;;;;;;;6.67;5.60;;;14.80;99.90;;;;;;5052552;28;20952;-78
2022/05/23 01:41:12;;;;;;;11.80;5.50;;;14.70;99.90;;;;;;5043400;28;20461;-78
2022/05/23 01:43:40;;;;;;;7.97;5.70;;;14.70;99.90;;;;;;5032796;28;20461;-78
2022/05/23 01:46:07;;;;;;;7.20;5.33;;;14.70;99.90;;;;;;5033008;28;20878;-78
2022/05/23 01:48:34;;;;;;;6.37;5.20;;;14.70;99.90;;;;;;5047515;28;20513;-77
2022/05/23 01:51:00;;;;;;;8.23;5.80;;;14.70;99.90;;;;;;5051087;28;21031;-78
2022/05/23 01:53:27;;;;;;;7.53;5.27;;;14.80;99.90;;;;;;5037641;28;20471;-78
2022/05/23 01:55:54;;;;;;;7.53;5.80;;;14.80;99.90;;;;;;5039091;28;20448;-78
2022/05/23 02:01:15;;;;;;;6.73;5.20;;;14.80;99.90;;;;;;5033602;28;20824;-78
2022/05/23 02:03:43;;;;;;;11.67;5.33;;;14.70;99.90;;;;;;5034404;28;20465;-78
2022/05/23 02:06:10;;;;;;;7.90;5.83;;;14.70;99.90;;;;;;5032601;28;21018;-78
2022/05/23 02:08:37;;;;;;;12.03;5.50;;;14.70;99.90;;;;;;5038685;28;20485;-77
2022/05/23 02:11:06;;;;;;;9.43;5.77;;;14.70;99.90;;;;;;5033405;28;20967;-78
2022/05/23 02:13:33;;;;;;;6.60;5.40;;;14.60;99.90;;;;;;5031950;28;20523;-78
2022/05/23 02:16:00;;;;;;;7.07;5.80;;;14.60;99.90;;;;;;5048616;28;20500;-78
2022/05/23 02:18:29;;;;;;;6.93;5.60;;;14.50;99.90;;;;;;5065931;28;20452;-77
2022/05/23 02:20:56;;;;;;;10.90;6.17;;;14.50;99.90;;;;;;5050148;28;20480;-77
2022/05/23 02:23:23;;;;;;;9.13;5.60;;;14.40;99.90;;;;;;5047154;28;21059;-78
2022/05/23 02:25:49;;;;;;;7.30;5.57;;;14.40;99.90;;;;;;5032378;28;20454;-77
2022/05/23 02:28:16;;;;;;;11.33;6.07;;;14.40;99.90;;;;;;5032345;28;20507;-77
2022/05/23 02:30:43;;;;;;;8.23;5.80;;;14.30;99.90;;;;;;5047018;28;20506;-78
2022/05/23 02:33:10;;;;;;;6.40;5.40;;;14.30;99.90;;;;;;5051358;28;20476;-78
2022/05/23 02:35:38;;;;;;;15.33;5.87;;;14.20;99.90;;;;;;5046231;28;20510;-77
2022/05/23 02:38:05;;;;;;;8.50;6.20;;;14.20;99.90;;;;;;5052059;28;20490;-78
2022/05/23 02:40:32;;;;;;;11.07;5.97;;;14.10;99.90;;;;;;5044202;28;20484;-78
2022/05/23 02:42:58;;;;;;;10.07;4.93;;;14.10;99.90;;;;;;5050809;28;20472;-77
2022/05/23 02:45:25;;;;;;;13.13;6.17;;;14.10;99.90;;;;;;5031478;28;20453;-77
2022/05/23 02:47:52;;;;;;;6.60;6.00;;;14.00;99.90;;;;;;5039858;28;20453;-77
2022/05/23 02:50:19;;;;;;;8.37;5.57;;;14.10;99.90;;;;;;5051345;28;20498;-77
2022/05/23 02:52:47;;;;;;;9.33;5.80;;;14.00;99.90;;;;;;5046525;28;20480;-77
2022/05/23 02:55:14;;;;;;;9.47;5.87;;;14.00;99.90;;;;;;5050735;28;20540;-78
2022/05/23 02:57:40;;;;;;;7.57;5.87;;;13.90;99.90;;;;;;5037743;28;21101;-78
2022/05/23 03:00:10;;;;;;;9.17;6.00;;;13.90;99.90;;;;;;5031454;28;20477;-79
2022/05/23 03:05:21;;;;;;;9.93;6.27;;;13.90;99.90;;;;;;5031299;28;20510;-79
2022/05/23 03:07:49;;;;;;;6.53;5.73;;;13.80;99.90;;;;;;5037980;28;20870;-78
2022/05/23 03:10:16;;;;;;;9.73;6.57;;;13.80;99.90;;;;;;5039987;28;20514;-78
2022/05/23 03:12:42;;;;;;;6.73;5.73;;;13.80;99.90;;;;;;5045599;28;21059;-78
2022/05/23 03:15:11;;;;;;;10.50;6.27;;;13.70;99.90;;;;;;5031078;28;20519;-77
2022/05/23 03:17:38;;;;;;;7.07;6.20;;;13.70;99.90;;;;;;5037088;28;20957;-78
2022/05/23 03:20:05;;;;;;;8.80;5.80;;;13.70;99.90;;;;;;5051205;28;20847;-78
2022/05/23 03:28:02;;;;;;;10.43;6.53;;;13.60;99.90;;;;;;5042343;28;20697;-77
2022/05/23 03:30:30;;;;;;;7.37;6.13;;;13.70;99.90;;;;;;5050796;28;20530;-78
2022/05/23 03:32:57;;;;;;;7.03;6.33;;;13.70;99.90;;;;;;5036282;28;20509;-79
2022/05/23 03:35:24;;;;;;;12.63;6.83;;;13.70;99.90;;;;;;5031470;28;20514;-77
2022/05/23 03:37:50;;;;;;;8.67;5.93;;;13.70;99.90;;;;;;5041524;28;20506;-77
2022/05/23 03:40:19;;;;;;;10.80;6.00;;;13.80;99.90;;;;;;5032537;28;20518;-79
2022/05/23 03:42:46;;;;;;;9.03;6.10;;;13.80;99.90;;;;;;5031350;28;20489;-78
2022/05/23 03:45:13;;;;;;;8.77;5.80;;;13.80;99.90;;;;;;5030978;28;20449;-77
2022/05/23 03:47:39;;;;;;;8.70;6.43;;;13.90;99.90;;;;;;5032891;28;20453;-78
2022/05/23 03:50:08;;;;;;;9.90;6.10;;;13.80;99.90;;;;;;5032561;28;20512;-78
2022/05/23 03:52:34;;;;;;;7.70;6.00;;;13.90;99.90;;;;;;5030962;28;20556;-77
2022/05/23 03:55:01;;;;;;;9.23;7.43;;;13.90;99.90;;;;;;5030919;28;20454;-77
2022/05/23 03:57:29;;;;;;;9.70;6.37;;;13.90;99.90;;;;;;5042166;28;20953;-77
2022/05/23 03:59:57;;;;;;;8.47;6.80;;;14.00;99.90;;;;;;5054644;28;20526;-77
2022/05/23 04:02:24;;;;;;;9.60;6.47;;;14.00;99.90;;;;;;5037990;28;20480;-77
2022/05/23 04:04:50;;;;;;;9.47;6.97;;;14.00;99.90;;;;;;5035345;28;20529;-78
2022/05/23 04:07:17;;;;;;;10.60;7.13;;;14.00;99.90;;;;;;5035134;28;20499;-78
2022/05/23 04:09:44;;;;;;;12.80;6.77;;;14.00;99.90;;;;;;5034893;28;20449;-78
2022/05/23 04:12:11;;;;;;;10.97;6.60;;;14.00;99.90;;;;;;5044311;28;20475;-77
2022/05/23 04:14:39;;;;;;;8.97;7.43;;;14.00;99.90;;;;;;5043030;28;20518;-78
2022/05/23 04:17:06;;;;;;;8.83;6.60;;;14.00;99.90;;;;;;5050568;28;20501;-78
2022/05/23 04:19:33;;;;;;;13.63;6.00;;;14.10;99.90;;;;;;5065568;28;20924;-77
2022/05/23 04:21:59;;;;;;;8.93;6.60;;;14.10;99.90;;;;;;5034594;28;21055;-77
2022/05/23 04:24:26;;;;;;;8.33;6.97;;;14.10;99.90;;;;;;5033840;28;20457;-78
2022/05/23 04:26:54;;;;;;;10.97;6.67;;;14.10;99.90;;;;;;5034708;28;20495;-78
2022/05/23 04:29:22;;;;;;;9.47;6.70;;;14.20;99.90;;;;;;5041147;28;20919;-78
2022/05/23 04:31:50;;;;;;;11.60;6.33;;;14.20;99.90;;;;;;5053942;28;20468;-77
2022/05/23 04:37:02;;;;;;;9.57;6.20;;;14.30;99.90;;;;;;5042252;28;20532;-77
2022/05/23 04:39:28;;;;;;;8.60;6.20;;;14.40;99.90;;;;;;5034228;28;20543;-79
2022/05/23 04:41:55;;;;;;;16.23;6.50;;;14.40;99.90;;;;;;5046122;28;20984;-76
2022/05/23 04:44:22;;;;;;;9.80;6.70;;;14.40;99.90;;;;;;5053532;28;20521;-77
2022/05/23 04:49:42;;;;;;;14.07;6.47;;;14.40;99.90;;;;;;5047021;28;20447;-77
2022/05/23 04:52:10;;;;;;;11.10;7.07;;;14.50;99.90;;;;;;5035946;28;20552;-77
2022/05/23 04:54:37;;;;;;;7.43;6.73;;;14.50;99.90;;;;;;5033438;28;20872;-77
2022/05/23 04:57:04;;;;;;;12.57;6.47;;;14.50;99.90;;;;;;5037418;28;20843;-77
2022/05/23 04:59:31;;;;;;;10.23;7.33;;;14.50;99.90;;;;;;5034524;28;20873;-77
2022/05/23 05:02:01;;;;;;;9.53;6.33;;;14.50;99.90;;;;;;5045436;28;20526;-77
2022/05/23 05:04:28;;;;;;;8.00;6.40;;;14.50;99.90;;;;;;5051688;28;20876;-78
2022/05/23 05:06:54;;;;;;;10.03;7.23;;;14.60;99.90;;;;;;5034761;28;20432;-78
2022/05/23 05:09:21;;;;;;;8.40;6.47;;;14.70;99.90;;;;;;5036882;28;20854;-78
2022/05/23 05:11:48;;;;;;;11.57;8.03;;;14.70;99.90;;;;;;5052562;28;20443;-78
2022/05/23 05:14:14;;;;;;;7.20;6.37;;;14.80;99.90;;;;;;5038919;28;20457;-78
2022/05/23 05:16:41;;;;;;;12.50;6.67;;;14.80;99.90;;;;;;5040803;28;20939;-79
2022/05/23 05:19:09;;;;;;;8.20;6.67;;;14.90;99.90;;;;;;5049437;28;20458;-79
2022/05/23 05:21:36;;;;;;;12.90;6.63;;;14.90;99.90;;;;;;5035043;28;20497;-78
2022/05/23 05:24:02;;;;;;;12.80;6.90;;;14.90;99.90;;;;;;5032761;28;20938;-78
2022/05/23 05:26:30;;;;;;;9.10;7.07;;;15.00;99.90;;;;;;5036911;28;20427;-77
2022/05/23 05:28:56;;;;;;;9.63;6.90;;;15.10;99.90;;;;;;5055181;28;20450;-78
2022/05/23 05:31:28;;;;;;;13.97;7.30;;;15.20;99.90;;;;;;5064256;28;20576;-78
2022/05/23 05:34:02;;;;;;;8.53;6.67;;;15.20;99.90;;;;;;5051883;28;20431;-78
2022/05/23 05:36:34;;;;;;;13.23;7.70;;;15.20;99.90;;;;;;5046993;28;20515;-77
2022/05/23 05:39:03;;;;;;;15.27;7.47;;;15.20;99.90;;;;;;5044823;28;20423;-77
2022/05/23 05:41:33;;;;;;;10.27;7.13;;;15.20;99.90;;;;;;5040512;28;20462;-77
2022/05/23 05:44:04;;;;;;;12.70;7.17;;;15.20;99.90;;;;;;5041958;28;20444;-76
2022/05/23 05:46:38;;;;;;;11.40;7.73;;;15.20;99.90;;;;;;5037533;28;20431;-76
2022/05/23 05:49:09;;;;;;;16.10;7.63;;;15.10;99.90;;;;;;5045785;28;20486;-78
2022/05/23 05:51:39;;;;;;;8.67;6.80;;;15.00;99.90;;;;;;5047043;28;20524;-77
2022/05/23 05:54:09;;;;;;;13.57;7.60;;;15.10;99.90;;;;;;5035738;28;20462;-76
2022/05/23 05:56:36;;;;;;;9.57;7.27;;;15.20;99.90;;;;;;5036995;28;20460;-75
2022/05/23 05:59:02;;;;;;;12.00;6.83;;;15.50;99.90;;;;;;5042161;28;20423;-75
2022/05/23 06:01:29;;;;;;;7.07;5.83;;;15.60;99.90;;;;;;5040886;28;20522;-76
2022/05/23 06:03:55;;;;;;;14.20;7.40;;;15.90;99.90;;;;;;5033034;28;21048;-77
2022/05/23 06:11:52;;;;;;;11.47;6.10;;;16.00;99.90;;;;;;5042438;28;20460;-76
2022/05/23 06:14:18;;;;;;;9.60;5.90;;;16.10;99.90;;;;;;5048166;28;20481;-76
2022/05/23 06:16:45;;;;;;;8.30;6.07;;;16.30;99.90;;;;;;5045763;28;20481;-77
2022/05/23 06:19:12;;;;;;;12.67;6.53;;;16.50;99.90;;;;;;5041244;28;20487;-76
2022/05/23 06:21:38;;;;;;;9.87;6.20;;;16.60;99.90;;;;;;5035251;28;20459;-76
2022/05/23 06:24:05;;;;;;;9.93;5.90;;;16.70;99.90;;;;;;5042798;28;20460;-76
2022/05/23 06:26:33;;;;;;;12.10;5.70;;;16.90;99.90;;;;;;5045618;28;20431;-77
2022/05/23 06:29:00;;;;;;;11.60;6.00;;;17.00;99.90;;;;;;5041521;28;20478;-76
2022/05/23 06:31:27;;;;;;;5.47;4.97;;;16.90;99.90;;;;;;5043632;28;20864;-76
2022/05/23 06:33:53;;;;;;;11.50;5.77;;;16.80;99.90;;;;;;5036067;28;20827;-78
2022/05/23 06:36:21;;;;;;;11.17;5.60;;;16.80;99.90;;;;;;5038382;28;20416;-76
2022/05/23 06:38:48;;;;;;;8.97;5.43;;;16.70;99.90;;;;;;5042756;28;20923;-77
2022/05/23 06:41:16;;;;;;;12.40;5.67;;;16.60;99.90;;;;;;5042819;28;20511;-76
2022/05/23 06:43:45;;;;;;;9.20;5.40;;;16.50;99.90;;;;;;5040113;28;20435;-77
2022/05/23 06:46:13;;;;;;;10.70;5.40;;;16.60;99.90;;;;;;5036492;28;20499;-78
2022/05/23 06:48:42;;;;;;;9.60;5.50;;;16.50;99.90;;;;;;5037888;28;20589;-78
2022/05/23 06:51:09;;;;;;;7.90;5.50;;;16.40;99.90;;;;;;5038910;28;20453;-78
2022/05/23 06:53:36;;;;;;;11.07;6.20;;;16.40;99.90;;;;;;5046237;28;20458;-77
2022/05/23 06:56:03;;;;;;;13.63;6.53;;;16.40;99.90;;;;;;5049939;28;20508;-78
2022/05/23 06:58:30;;;;;;;13.70;6.13;;;16.40;99.90;;;;;;5041872;28;20435;-77
2022/05/23 07:00:58;;;;;;;11.00;6.30;;;16.40;99.90;;;;;;5042567;28;20987;-78
2022/05/23 07:03:25;;;;;;;8.50;5.63;;;16.30;99.90;;;;;;5043856;28;20591;-78
2022/05/23 07:14:06;;;;;;;9.33;6.70;;;16.40;99.90;;;;;;5041265;28;20456;-77
2022/05/23 07:16:35;;;;;;;11.87;6.47;;;16.40;99.90;;;;;;5044702;28;20849;-78
2022/05/23 07:19:02;;;;;;;9.17;5.60;;;16.40;99.90;;;;;;5030164;28;20855;-77
2022/05/23 07:21:31;;;;;;;8.73;6.20;;;16.50;99.90;;;;;;5030599;28;20497;-78
2022/05/23 07:23:58;;;;;;;11.07;5.95;;;16.60;99.90;;;;;;5036681;28;20550;-77
2022/05/23 07:26:25;;;;;;;9.40;6.77;;;16.70;99.90;;;;;;5039176;28;20671;-76
2022/05/23 07:28:53;;;;;;;8.07;6.13;;;16.70;99.90;;;;;;5041298;28;20427;-77
2022/05/23 07:31:20;;;;;;;14.33;6.83;;;16.80;99.90;;;;;;5044086;28;20435;-75
2022/05/23 07:33:48;;;;;;;12.03;6.37;;;16.90;99.90;;;;;;5049743;28;20430;-76
2022/05/23 07:36:15;;;;;;;8.47;5.93;;;16.90;99.90;;;;;;5044729;28;20827;-76
2022/05/23 07:38:41;;;;;;;9.90;5.60;;;17.00;99.90;;;;;;5038741;28;20427;-76
2022/05/23 07:41:11;;;;;;;8.80;5.73;;;17.00;99.90;;;;;;5037530;28;20477;-76
2022/05/23 07:43:41;;;;;;;6.87;5.30;;;17.00;99.90;;;;;;5037996;28;20424;-76
2022/05/23 07:46:13;;;;;;;9.47;5.83;;;17.00;99.90;;;;;;5043307;28;20935;-75
2022/05/23 07:48:41;;;;;;;8.40;5.63;;;17.00;99.90;;;;;;5050025;28;20411;-75
2022/05/23 07:51:10;;;;;;;7.60;5.90;;;17.00;99.90;;;;;;5038502;28;20420;-76
2022/05/23 08:01:50;;;;;;;14.77;5.83;;;17.00;99.90;;;;;;5039026;28;20513;-76
2022/05/23 08:04:17;;;;;;;6.73;5.03;;;17.10;99.90;;;;;;5036362;28;20869;-76
2022/05/23 08:06:45;;;;;;;14.73;5.50;;;17.20;99.90;;;;;;5036155;28;20439;-76
2022/05/23 08:09:12;;;;;;;9.10;5.13;;;17.30;99.90;;;;;;5037022;28;20432;-76
2022/05/23 08:11:41;;;;;;;8.00;5.27;;;17.30;99.90;;;;;;5042252;28;20897;-76
2022/05/23 08:14:08;;;;;;;7.97;5.67;;;17.40;99.90;;;;;;5046825;28;20516;-76
2022/05/23 08:16:35;;;;;;;11.07;7.00;;;17.40;99.90;;;;;;5052366;28;20963;-77
2022/05/23 08:19:02;;;;;;;10.80;6.30;;;17.50;99.90;;;;;;5032830;28;20432;-78
2022/05/23 08:21:29;;;;;;;9.70;7.00;;;17.50;99.90;;;;;;5034594;28;20470;-76
2022/05/23 08:23:58;;;;;;;13.30;6.10;;;17.50;99.90;;;;;;5037677;28;20460;-75
2022/05/23 08:26:25;;;;;;;9.00;6.60;;;17.60;99.90;;;;;;5031149;28;20432;-77
2022/05/23 08:28:52;;;;;;;9.27;5.43;;;17.60;99.90;;;;;;5041081;28;21040;-77
2022/05/23 08:31:19;;;;;;;9.73;5.30;;;17.60;99.90;;;;;;5035508;28;21020;-76
2022/05/23 08:33:46;;;;;;;8.93;5.40;;;17.70;99.90;;;;;;5033520;28;20519;-76
2022/05/23 08:36:12;;;;;;;5.77;5.00;;;17.70;99.90;;;;;;5034569;28;20536;-75
2022/05/23 08:38:39;;;;;;;7.37;5.20;;;17.80;99.90;;;;;;5037571;28;20480;-74
2022/05/23 08:41:18;;;;;;;9.23;5.43;;;17.80;99.90;;;;;;5036148;28;20993;-74
2022/05/23 08:43:51;;;;;;;6.10;4.93;;;17.90;99.90;;;;;;5034787;28;20455;-75
2022/05/23 08:46:24;;;;;;;6.53;5.80;;;17.90;99.90;;;;;;5037623;28;20432;-75
2022/05/23 08:48:58;;;;;;;8.90;5.10;;;17.90;99.90;;;;;;5048589;28;20423;-75
2022/05/23 08:51:33;;;;;;;10.63;5.50;;;17.90;99.90;;;;;;5036909;28;20961;-75
2022/05/23 08:54:05;;;;;;;7.67;5.73;;;17.90;99.90;;;;;;5051102;28;20471;-75
2022/05/23 08:56:37;;;;;;;11.60;6.13;;;17.90;99.90;;;;;;5055626;28;20456;-75
2022/05/23 08:59:11;;;;;;;25.73;7.53;;;17.90;99.90;;;;;;5053836;28;20992;-75
2022/05/23 09:01:46;;;;;;;14.70;6.83;;;17.90;99.90;;;;;;5037141;28;20488;-75
2022/05/23 09:04:19;;;;;;;15.90;8.03;;;18.00;99.90;;;;;;5031878;28;20476;-75
2022/05/23 09:06:48;;;;;;;8.17;6.70;;;18.20;99.90;;;;;;5032481;28;20486;-75
2022/05/23 09:09:18;;;;;;;10.63;5.90;;;18.20;99.90;;;;;;5032917;28;20428;-73
2022/05/23 09:11:49;;;;;;;9.60;5.50;;;18.30;99.90;;;;;;5032715;28;20444;-76
2022/05/23 09:14:17;;;;;;;8.60;5.70;;;18.50;99.90;;;;;;5032512;28;20450;-75
2022/05/23 09:16:48;;;;;;;16.70;6.20;;;18.50;99.90;;;;;;5038483;28;20822;-78
2022/05/23 09:19:19;;;;;;;7.60;6.00;;;18.70;99.90;;;;;;5040835;28;20488;-76
2022/05/23 09:24:45;;;;;;;8.70;5.20;;;18.90;99.90;;;;;;5036463;28;20452;-74
2022/05/23 09:27:17;;;;;;;8.63;5.60;;;19.00;99.90;;;;;;5032789;28;20436;-75
2022/05/23 09:29:49;;;;;;;9.50;5.40;;;19.20;99.90;;;;;;5044238;23;20498;-87
2022/05/23 09:32:18;;;;;;;9.83;5.40;;;19.50;99.90;;;;;;5027617;28;20468;-88
2022/05/23 09:34:48;;;;;;;9.90;5.33;;;19.90;99.90;;;;;;5036199;28;20449;-89
2022/05/23 09:37:20;;;;;;;12.27;5.50;;;20.30;99.90;;;;;;5029859;28;20425;-87
2022/05/23 09:39:52;;;;;;;9.10;5.53;;;20.80;99.90;;;;;;5010652;28;20481;-88
2022/05/23 09:48:13;;;;;;;7.70;5.40;;;21.20;99.90;;;;;;5034265;28;20463;-88
2022/05/23 09:50:42;;;;;;;14.70;6.47;;;21.30;99.90;;;;;;5034047;28;20571;-88
2022/05/23 09:53:24;;;;;;;6.03;5.30;;;21.30;99.90;;;;;;5034208;28;21111;-87
2022/05/23 09:55:51;;;;;;;7.57;5.53;;;21.20;99.90;;;;;;5033843;28;20468;-88
2022/05/23 09:58:25;;;;;;;7.63;5.33;;;21.30;99.90;;;;;;5034049;28;20832;-88
2022/05/23 10:01:02;;;;;;;5.70;5.10;;;21.40;99.90;;;;;;5034216;28;20492;-88
2022/05/23 10:03:30;;;;;;;7.90;5.47;;;21.90;99.90;;;;;;5034114;28;20467;-88
2022/05/23 10:06:09;;;;;;;11.43;6.30;;;21.90;99.90;;;;;;5034716;28;20457;-86
2022/05/23 10:08:39;;;;;;;8.17;6.20;;;21.70;99.90;;;;;;5035257;28;20461;-89
2022/05/23 10:11:14;;;;;;;7.37;4.90;;;21.60;99.90;;;;;;5032952;28;20442;-89
2022/05/23 10:13:43;;;;;;;7.63;5.30;;;21.70;99.90;;;;;;5031753;28;20508;-89
2022/05/23 10:16:16;;;;;;;9.40;4.90;;;21.90;99.90;;;;;;5032778;28;20461;-88
2022/05/23 10:18:49;;;;;;;6.97;4.70;;;22.10;99.90;;;;;;5032770;28;20449;-89
2022/05/23 10:21:27;;;;;;;6.90;5.10;;;22.20;99.90;;;;;;5032864;28;20438;-88
2022/05/23 10:24:04;;;;;;;9.53;5.30;;;22.10;99.90;;;;;;5032857;28;20504;-88
2022/05/23 10:26:34;;;;;;;8.80;4.77;;;22.10;99.90;;;;;;5033408;28;20433;-89
2022/05/23 10:29:09;;;;;;;6.93;4.70;;;22.20;99.90;;;;;;5033101;28;20442;-89
2022/05/23 10:31:39;;;;;;;14.10;5.50;;;22.30;99.90;;;;;;5033336;28;20441;-88
2022/05/23 10:34:20;;;;;;;7.23;5.27;;;22.60;99.90;;;;;;5032825;28;20465;-88
2022/05/23 10:36:49;;;;;;;10.67;4.90;;;22.80;99.90;;;;;;5032780;28;20488;-88
2022/05/23 10:42:15;;;;;;;10.10;5.40;;;22.30;99.90;;;;;;5032942;28;20472;-90
2022/05/23 10:45:23;;;;;;;11.70;5.43;;;22.30;99.90;;;;;;5032467;28;20489;-88
2022/05/23 10:48:10;;;;;;;8.37;5.50;;;22.50;99.90;;;;;;5022396;28;20460;-88
2022/05/23 10:50:45;;;;;;;6.60;4.80;;;22.90;99.90;;;;;;5013201;28;20477;-89
2022/05/23 10:53:23;;;;;;;12.90;5.30;;;23.20;99.90;;;;;;5012991;28;20503;-88
2022/05/23 10:56:03;;;;;;;5.93;5.30;;;23.50;99.90;;;;;;5019075;28;20453;-89
2022/05/23 10:58:37;;;;;;;8.13;5.60;;;23.50;99.90;;;;;;5032797;28;20610;-90
2022/05/23 11:01:22;;;;;;;12.03;4.93;;;23.50;99.90;;;;;;5032470;28;20434;-89
2022/05/23 11:03:56;;;;;;;8.10;6.07;;;23.60;99.90;;;;;;5032503;28;20488;-88
2022/05/23 11:06:33;;;;;;;8.40;6.27;;;23.60;99.90;;;;;;5032488;28;20461;-89
2022/05/23 11:09:08;;;;;;;6.83;5.30;;;23.60;99.90;;;;;;5032555;28;20453;-89
2022/05/23 11:11:53;;;;;;;7.87;4.67;;;23.80;99.90;;;;;;5032215;28;20452;-89
2022/05/23 11:14:32;;;;;;;7.70;5.07;;;24.00;99.90;;;;;;5032529;28;21023;-88
2022/05/23 11:17:29;;;;;;;6.80;4.97;;;24.10;99.90;;;;;;5143571;27;20545;-87
2022/05/23 11:20:07;;;;;;;6.30;4.93;;;24.20;99.90;;;;;;5110310;28;20526;-88
2022/05/23 11:22:37;;;;;;;6.27;4.57;;;24.50;99.90;;;;;;5110505;28;20454;-90
2022/05/23 11:25:13;;;;;;;8.23;4.57;;;24.50;99.90;;;;;;5110568;28;20899;-91
2022/05/23 11:54:49;;;;;;;4.13;3.47;;;24.80;99.90;;;;;;5109828;22;20507;-95
2022/05/23 11:57:47;;;;;;;5.83;3.80;;;24.80;99.90;;;;;;5074968;28;20436;-95
2022/05/23 12:00:37;;;;;;;10.07;3.90;;;25.00;99.90;;;;;;5075243;28;20449;-96
2022/05/23 12:03:17;;;;;;;5.33;3.80;;;25.40;99.90;;;;;;5098128;22;20552;-96
2022/05/23 12:05:45;;;;;;;9.93;4.10;;;25.40;99.90;;;;;;5075300;28;20476;-94
2022/05/23 12:08:51;;;;;;;6.83;4.00;;;25.70;99.90;;;;;;5072585;28;20479;-92
2022/05/23 12:12:07;;;;;;;6.67;3.83;;;25.80;99.90;;;;;;5046394;28;20452;-92
2022/05/23 12:15:14;;;;;;;8.43;4.23;;;25.90;99.90;;;;;;5050672;28;20843;-92
2022/05/23 12:18:01;;;;;;;6.40;3.87;;;25.50;99.90;;;;;;5051493;28;20448;-90
2022/05/23 12:20:50;;;;;;;6.57;3.73;;;24.70;99.90;;;;;;5050998;28;20507;-90
2022/05/23 12:26:34;;;;;;;7.07;4.50;;;24.00;99.90;;;;;;5111661;27;20556;-89
2022/05/23 12:29:37;;;;;;;6.00;3.50;;;24.00;99.90;;;;;;5111836;28;20458;-90
2022/05/23 12:32:45;;;;;;;8.10;3.53;;;24.00;99.90;;;;;;5111592;28;20450;-90
2022/05/23 12:35:25;;;;;;;8.50;3.97;;;;;;;;;;5111900;27;20474;-89
2022/05/23 12:38:18;;;;;;;5.80;3.80;;;24.30;99.90;;;;;;5111957;27;20918;-89
2022/05/23 12:41:27;;;;;;;8.33;3.77;;;24.40;99.90;;;;;;5111700;27;20465;-89
2022/05/23 12:44:55;;;;;;;5.63;3.77;;;24.50;99.90;;;;;;5111247;28;20560;-89
2022/05/23 12:51:15;;;;;;;7.40;3.90;;;24.40;99.90;;;;;;5112199;27;20430;-89
2022/05/23 12:54:38;;;;;;;4.87;4.10;;;24.30;99.90;;;;;;5112595;27;20470;-89
2022/05/23 12:57:44;;;;;;;3.70;3.40;;;24.20;99.90;;;;;;5113113;27;20530;-89
2022/05/23 13:00:46;;;;;;;7.93;4.07;;;24.20;99.90;;;;;;5112824;27;20460;-89
2022/05/23 13:03:55;;;;;;;6.77;3.90;;;24.30;99.90;;;;;;5108428;28;20449;-89
2022/05/23 13:06:41;;;;;;;7.53;3.97;;;24.40;99.90;;;;;;5112093;28;20477;-89
2022/05/23 13:13:02;;;;;;;10.17;4.33;;;24.20;99.90;;;;;;5112654;28;20468;-89
2022/05/23 13:24:02;;;;;;;9.07;4.00;;;24.40;99.90;;;;;;5111971;28;20437;-89
2022/05/23 13:32:26;;;;;;;8.43;3.80;;;24.60;99.90;;;;;;5114329;27;20437;-89
2022/05/23 13:37:58;;;;;;;6.53;4.33;;;;;;;;;;5092996;28;20448;-90
2022/05/23 13:41:11;;;;;;;6.77;4.83;;;24.70;99.90;;;;;;5102764;28;20933;-90
2022/05/23 13:47:15;;;;;;;17.80;5.40;;;24.70;99.90;;;;;;5099902;28;20575;-89
2022/05/23 13:50:17;;;;;;;5.93;4.90;;;24.60;99.90;;;;;;5100055;28;20451;-90
2022/05/23 13:56:07;;;;;;;7.20;5.03;;;24.50;99.90;;;;;;5101015;28;20434;-89
2022/05/23 13:59:01;;;;;;;11.77;4.60;;;24.40;99.90;;;;;;5099256;28;20958;-89
2022/05/23 14:04:18;;;;;;;8.30;4.80;;;24.00;99.90;;;;;;5096948;28;20454;-89
2022/05/23 14:12:35;;;;;;;6.60;4.80;;;24.00;99.90;;;;;;5140302;27;20507;-89
2022/05/23 14:15:27;;;;;;;6.27;4.47;;;24.00;99.90;;;;;;5111914;28;20527;-90
2022/05/23 14:18:24;;;;;;;9.07;4.53;;;24.00;99.90;;;;;;5111972;28;20457;-89
2022/05/23 14:21:03;;;;;;;10.63;5.70;;;24.10;99.90;;;;;;5112230;28;20495;-89
2022/05/23 14:24:10;;;;;;;13.33;5.03;;;24.20;99.90;;;;;;5112199;28;20484;-90
2022/05/23 14:27:05;;;;;;;5.80;4.90;;;24.40;99.90;;;;;;5090167;22;20497;-90
2022/05/23 14:30:40;;;;;;;7.07;5.57;;;24.40;99.90;;;;;;5050972;28;20444;-89
2022/05/23 14:37:19;;;;;;;11.17;5.10;;;24.20;99.90;;;;;;5051029;28;20559;-91
2022/05/23 14:40:01;;;;;;;13.63;5.13;;;24.00;99.90;;;;;;5050982;28;20456;-89
2022/05/23 14:43:03;;;;;;;8.77;5.43;;;23.90;99.90;;;;;;5051888;28;20804;-89
2022/05/23 14:46:04;;;;;;;7.67;5.13;;;23.60;99.90;;;;;;5050616;28;20483;-88
2022/05/23 14:49:06;;;;;;;8.20;5.30;;;23.70;99.90;;;;;;5051213;28;20444;-89
2022/05/23 14:51:55;;;;;;;9.40;5.77;;;23.80;99.90;;;;;;5050341;28;20480;-89
2022/05/23 15:00:53;;;;;;;7.43;5.07;;;24.10;99.90;;;;;;5050631;28;20400;-89
2022/05/23 15:03:42;;;;;;;7.60;5.30;;;24.20;99.90;;;;;;5050404;28;20456;-89
2022/05/23 15:06:09;;;;;;;9.40;5.23;;;24.20;99.90;;;;;;5051284;28;20483;-89
2022/05/23 15:08:38;;;;;;;7.10;5.20;;;24.10;99.90;;;;;;5050518;28;20456;-89
2022/05/23 15:11:06;;;;;;;13.70;6.37;;;;;;;;;;5050474;28;20480;-89
2022/05/23 15:13:35;;;;;;;10.93;4.93;;;24.10;99.90;;;;;;5050447;28;20457;-89
2022/05/23 15:16:04;;;;;;;9.23;5.60;;;24.00;99.90;;;;;;5050559;28;20848;-89
2022/05/23 15:18:33;;;;;;;10.90;5.30;;;24.10;99.90;;;;;;5050701;28;20535;-89
2022/05/23 15:21:01;;;;;;;11.43;6.00;;;24.00;99.90;;;;;;5050965;28;20468;-90
2022/05/23 15:23:28;;;;;;;10.47;6.27;;;;;;;;;;5037930;28;20461;-89
2022/05/23 15:26:17;;;;;;;10.27;5.33;;;24.20;99.90;;;;;;5037496;28;20487;-89
2022/05/23 15:28:45;;;;;;;7.67;5.40;;;24.30;99.90;;;;;;5036879;28;20545;-90
2022/05/23 15:31:14;;;;;;;8.80;5.70;;;24.60;99.90;;;;;;5036766;28;20488;-89